sensor_id;sensor_type;location;lat;lon;timestamp;P1;durP1;ratioP1;P2;durP2;ratioP2
30398;SDS011;17195;50.838;7.214;2022-08-19T00:01:46;21.85;;;19.58;;
30398;SDS011;17195;50.838;7.214;2022-08-19T00:04:13;24.15;;;20.83;;
30398;SDS011;17195;50.838;7.214;2022-08-19T00:06:41;23.13;;;19.52;;
30398;SDS011;17195;50.838;7.214;2022-08-19T00:09:10;22.73;;;20.13;;
30398;SDS011;17195;50.838;7.214;2022-08-19T00:11:37;21.33;;;19.23;;
30398;SDS011;17195;50.838;7.214;2022-08-19T00:14:05;22.63;;;20.42;;
30398;SDS011;17195;50.838;7.214;2022-08-19T00:16:33;23.20;;;19.45;;
30398;SDS011;17195;50.838;7.214;2022-08-19T00:18:59;22.30;;;19.27;;
30398;SDS011;17195;50.838;7.214;2022-08-19T00:21:25;22.58;;;20.10;;
30398;SDS011;17195;50.838;7.214;2022-08-19T00:23:54;22.27;;;19.95;;
30398;SDS011;17195;50.838;7.214;2022-08-19T00:26:23;21.95;;;19.70;;
30398;SDS011;17195;50.838;7.214;2022-08-19T00:28:52;21.85;;;19.65;;
30398;SDS011;17195;50.838;7.214;2022-08-19T00:31:18;23.30;;;20.20;;
30398;SDS011;17195;50.838;7.214;2022-08-19T00:33:44;21.58;;;19.45;;
30398;SDS011;17195;50.838;7.214;2022-08-19T00:36:10;21.55;;;19.40;;
30398;SDS011;17195;50.838;7.214;2022-08-19T00:38:37;20.67;;;18.75;;
30398;SDS011;17195;50.838;7.214;2022-08-19T00:41:08;22.35;;;20.13;;
30398;SDS011;17195;50.838;7.214;2022-08-19T00:43:42;19.30;;;17.53;;
30398;SDS011;17195;50.838;7.214;2022-08-19T00:46:08;22.35;;;20.10;;
30398;SDS011;17195;50.838;7.214;2022-08-19T00:48:34;21.27;;;19.02;;
30398;SDS011;17195;50.838;7.214;2022-08-19T00:51:01;20.27;;;18.27;;
30398;SDS011;17195;50.838;7.214;2022-08-19T00:53:28;21.55;;;19.25;;
30398;SDS011;17195;50.838;7.214;2022-08-19T00:55:56;20.70;;;18.65;;
30398;SDS011;17195;50.838;7.214;2022-08-19T00:58:25;23.10;;;20.65;;
30398;SDS011;17195;50.838;7.214;2022-08-19T01:00:53;21.63;;;19.42;;
30398;SDS011;17195;50.838;7.214;2022-08-19T01:03:20;22.23;;;19.92;;
30398;SDS011;17195;50.838;7.214;2022-08-19T01:05:46;21.50;;;19.40;;
30398;SDS011;17195;50.838;7.214;2022-08-19T01:08:13;22.15;;;19.90;;
30398;SDS011;17195;50.838;7.214;2022-08-19T01:10:42;22.40;;;20.20;;
30398;SDS011;17195;50.838;7.214;2022-08-19T01:13:10;22.00;;;19.70;;
30398;SDS011;17195;50.838;7.214;2022-08-19T01:15:40;22.05;;;19.95;;
30398;SDS011;17195;50.838;7.214;2022-08-19T01:18:12;21.95;;;19.70;;
30398;SDS011;17195;50.838;7.214;2022-08-19T01:20:39;20.77;;;18.65;;
30398;SDS011;17195;50.838;7.214;2022-08-19T01:23:05;22.52;;;20.20;;
30398;SDS011;17195;50.838;7.214;2022-08-19T01:25:32;22.10;;;20.00;;
30398;SDS011;17195;50.838;7.214;2022-08-19T01:28:06;22.70;;;20.38;;
30398;SDS011;17195;50.838;7.214;2022-08-19T01:30:33;23.13;;;20.80;;
30398;SDS011;17195;50.838;7.214;2022-08-19T01:32:59;22.38;;;20.13;;
30398;SDS011;17195;50.838;7.214;2022-08-19T01:35:27;22.50;;;20.23;;
30398;SDS011;17195;50.838;7.214;2022-08-19T01:40:32;22.05;;;19.88;;
30398;SDS011;17195;50.838;7.214;2022-08-19T01:43:00;21.90;;;19.80;;
30398;SDS011;17195;50.838;7.214;2022-08-19T01:45:28;21.30;;;19.08;;
30398;SDS011;17195;50.838;7.214;2022-08-19T01:47:56;21.67;;;19.52;;
30398;SDS011;17195;50.838;7.214;2022-08-19T01:50:22;22.83;;;19.95;;
30398;SDS011;17195;50.838;7.214;2022-08-19T01:52:48;23.27;;;20.88;;
30398;SDS011;17195;50.838;7.214;2022-08-19T01:55:15;22.45;;;20.25;;
30398;SDS011;17195;50.838;7.214;2022-08-19T01:57:44;24.13;;;20.38;;
30398;SDS011;17195;50.838;7.214;2022-08-19T02:00:14;21.88;;;19.63;;
30398;SDS011;17195;50.838;7.214;2022-08-19T02:02:41;22.33;;;20.13;;
30398;SDS011;17195;50.838;7.214;2022-08-19T02:05:07;22.90;;;20.60;;
30398;SDS011;17195;50.838;7.214;2022-08-19T02:07:34;21.45;;;19.25;;
30398;SDS011;17195;50.838;7.214;2022-08-19T02:10:04;23.40;;;21.05;;
30398;SDS011;17195;50.838;7.214;2022-08-19T02:12:32;24.52;;;21.92;;
30398;SDS011;17195;50.838;7.214;2022-08-19T02:14:58;24.73;;;22.17;;
30398;SDS011;17195;50.838;7.214;2022-08-19T02:17:24;24.27;;;21.83;;
30398;SDS011;17195;50.838;7.214;2022-08-19T02:19:50;24.13;;;21.63;;
30398;SDS011;17195;50.838;7.214;2022-08-19T02:22:15;24.63;;;22.05;;
30398;SDS011;17195;50.838;7.214;2022-08-19T02:24:41;24.42;;;21.83;;
30398;SDS011;17195;50.838;7.214;2022-08-19T02:27:07;25.02;;;22.35;;
30398;SDS011;17195;50.838;7.214;2022-08-19T02:29:32;24.95;;;22.35;;
30398;SDS011;17195;50.838;7.214;2022-08-19T02:31:58;23.65;;;21.10;;
30398;SDS011;17195;50.838;7.214;2022-08-19T02:34:23;24.27;;;21.67;;
30398;SDS011;17195;50.838;7.214;2022-08-19T02:36:50;23.25;;;20.95;;
30398;SDS011;17195;50.838;7.214;2022-08-19T02:39:16;23.55;;;21.25;;
30398;SDS011;17195;50.838;7.214;2022-08-19T02:41:41;23.10;;;20.80;;
30398;SDS011;17195;50.838;7.214;2022-08-19T02:44:07;23.90;;;20.20;;
30398;SDS011;17195;50.838;7.214;2022-08-19T02:46:32;23.33;;;20.85;;
30398;SDS011;17195;50.838;7.214;2022-08-19T02:49:03;22.05;;;19.95;;
30398;SDS011;17195;50.838;7.214;2022-08-19T02:51:37;22.00;;;19.80;;
30398;SDS011;17195;50.838;7.214;2022-08-19T02:54:05;23.58;;;20.85;;
30398;SDS011;17195;50.838;7.214;2022-08-19T02:56:31;24.13;;;21.08;;
30398;SDS011;17195;50.838;7.214;2022-08-19T02:58:58;22.80;;;20.42;;
30398;SDS011;17195;50.838;7.214;2022-08-19T03:01:28;22.92;;;20.63;;
30398;SDS011;17195;50.838;7.214;2022-08-19T03:03:56;22.65;;;20.42;;
30398;SDS011;17195;50.838;7.214;2022-08-19T03:06:24;23.85;;;21.35;;
30398;SDS011;17195;50.838;7.214;2022-08-19T03:08:50;24.00;;;21.40;;
30398;SDS011;17195;50.838;7.214;2022-08-19T03:11:17;25.35;;;22.63;;
30398;SDS011;17195;50.838;7.214;2022-08-19T03:13:48;24.33;;;21.73;;
30398;SDS011;17195;50.838;7.214;2022-08-19T03:16:15;26.65;;;23.67;;
30398;SDS011;17195;50.838;7.214;2022-08-19T03:18:45;24.60;;;22.15;;
30398;SDS011;17195;50.838;7.214;2022-08-19T03:21:18;24.63;;;22.13;;
30398;SDS011;17195;50.838;7.214;2022-08-19T03:23:45;22.75;;;20.45;;
30398;SDS011;17195;50.838;7.214;2022-08-19T03:26:11;22.77;;;20.38;;
30398;SDS011;17195;50.838;7.214;2022-08-19T03:28:37;23.58;;;21.13;;
30398;SDS011;17195;50.838;7.214;2022-08-19T03:31:12;24.40;;;22.00;;
30398;SDS011;17195;50.838;7.214;2022-08-19T03:33:39;22.83;;;20.48;;
30398;SDS011;17195;50.838;7.214;2022-08-19T03:36:19;23.48;;;20.88;;
30398;SDS011;17195;50.838;7.214;2022-08-19T03:38:52;21.92;;;19.73;;
30398;SDS011;17195;50.838;7.214;2022-08-19T03:41:21;22.80;;;20.35;;
30398;SDS011;17195;50.838;7.214;2022-08-19T03:43:48;24.38;;;21.88;;
30398;SDS011;17195;50.838;7.214;2022-08-19T03:46:15;24.83;;;22.33;;
30398;SDS011;17195;50.838;7.214;2022-08-19T03:48:46;24.95;;;22.35;;
30398;SDS011;17195;50.838;7.214;2022-08-19T03:51:16;25.40;;;22.70;;
30398;SDS011;17195;50.838;7.214;2022-08-19T03:53:44;24.27;;;21.10;;
30398;SDS011;17195;50.838;7.214;2022-08-19T03:56:10;23.77;;;21.27;;
30398;SDS011;17195;50.838;7.214;2022-08-19T03:58:37;23.38;;;21.05;;
30398;SDS011;17195;50.838;7.214;2022-08-19T04:01:07;23.25;;;20.85;;
30398;SDS011;17195;50.838;7.214;2022-08-19T04:03:33;24.65;;;22.02;;
30398;SDS011;17195;50.838;7.214;2022-08-19T04:06:08;23.63;;;21.23;;
30398;SDS011;17195;50.838;7.214;2022-08-19T04:08:35;24.52;;;21.42;;
30398;SDS011;17195;50.838;7.214;2022-08-19T04:11:01;23.20;;;20.85;;
30398;SDS011;17195;50.838;7.214;2022-08-19T04:13:31;23.35;;;20.95;;
30398;SDS011;17195;50.838;7.214;2022-08-19T04:15:56;22.58;;;20.08;;
30398;SDS011;17195;50.838;7.214;2022-08-19T04:18:22;23.20;;;20.90;;
30398;SDS011;17195;50.838;7.214;2022-08-19T04:20:47;23.55;;;20.50;;
30398;SDS011;17195;50.838;7.214;2022-08-19T04:23:14;23.25;;;20.73;;
30398;SDS011;17195;50.838;7.214;2022-08-19T04:25:42;23.70;;;21.35;;
30398;SDS011;17195;50.838;7.214;2022-08-19T04:28:09;24.52;;;21.92;;
30398;SDS011;17195;50.838;7.214;2022-08-19T04:30:37;25.05;;;22.48;;
30398;SDS011;17195;50.838;7.214;2022-08-19T04:33:14;25.25;;;22.63;;
30398;SDS011;17195;50.838;7.214;2022-08-19T04:35:45;26.30;;;23.60;;
30398;SDS011;17195;50.838;7.214;2022-08-19T04:38:13;26.77;;;23.98;;
30398;SDS011;17195;50.838;7.214;2022-08-19T04:40:40;26.63;;;23.77;;
30398;SDS011;17195;50.838;7.214;2022-08-19T04:43:27;26.08;;;23.38;;
30398;SDS011;17195;50.838;7.214;2022-08-19T04:45:53;27.35;;;24.50;;
30398;SDS011;17195;50.838;7.214;2022-08-19T04:48:19;32.35;;;24.65;;
30398;SDS011;17195;50.838;7.214;2022-08-19T04:50:54;27.25;;;24.33;;
30398;SDS011;17195;50.838;7.214;2022-08-19T04:53:25;27.30;;;24.38;;
30398;SDS011;17195;50.838;7.214;2022-08-19T04:55:53;28.52;;;25.58;;
30398;SDS011;17195;50.838;7.214;2022-08-19T04:58:20;28.45;;;25.30;;
30398;SDS011;17195;50.838;7.214;2022-08-19T05:00:45;26.63;;;23.77;;
30398;SDS011;17195;50.838;7.214;2022-08-19T05:03:11;25.02;;;22.33;;
30398;SDS011;17195;50.838;7.214;2022-08-19T05:05:43;24.25;;;21.75;;
30398;SDS011;17195;50.838;7.214;2022-08-19T05:08:10;21.85;;;19.65;;
30398;SDS011;17195;50.838;7.214;2022-08-19T05:10:38;24.80;;;22.30;;
30398;SDS011;17195;50.838;7.214;2022-08-19T05:13:05;25.25;;;22.60;;
30398;SDS011;17195;50.838;7.214;2022-08-19T05:15:31;25.00;;;22.17;;
30398;SDS011;17195;50.838;7.214;2022-08-19T05:17:56;26.05;;;23.25;;
30398;SDS011;17195;50.838;7.214;2022-08-19T05:20:41;24.67;;;22.08;;
30398;SDS011;17195;50.838;7.214;2022-08-19T05:23:25;25.55;;;22.42;;
30398;SDS011;17195;50.838;7.214;2022-08-19T05:25:51;24.42;;;21.98;;
30398;SDS011;17195;50.838;7.214;2022-08-19T05:28:17;30.00;;;24.90;;
30398;SDS011;17195;50.838;7.214;2022-08-19T05:30:44;27.27;;;24.58;;
30398;SDS011;17195;50.838;7.214;2022-08-19T05:33:10;27.73;;;24.73;;
30398;SDS011;17195;50.838;7.214;2022-08-19T05:35:37;27.30;;;24.15;;
30398;SDS011;17195;50.838;7.214;2022-08-19T05:38:04;31.90;;;27.77;;
30398;SDS011;17195;50.838;7.214;2022-08-19T05:40:33;29.42;;;26.33;;
30398;SDS011;17195;50.838;7.214;2022-08-19T05:43:01;35.22;;;29.63;;
30398;SDS011;17195;50.838;7.214;2022-08-19T05:45:27;35.72;;;28.17;;
30398;SDS011;17195;50.838;7.214;2022-08-19T05:47:52;30.55;;;26.77;;
30398;SDS011;17195;50.838;7.214;2022-08-19T05:50:18;31.10;;;26.85;;
30398;SDS011;17195;50.838;7.214;2022-08-19T05:52:45;26.98;;;24.05;;
30398;SDS011;17195;50.838;7.214;2022-08-19T05:55:10;27.92;;;25.02;;
30398;SDS011;17195;50.838;7.214;2022-08-19T05:57:36;28.10;;;25.15;;
30398;SDS011;17195;50.838;7.214;2022-08-19T06:00:03;29.75;;;26.55;;
30398;SDS011;17195;50.838;7.214;2022-08-19T06:02:33;24.95;;;22.35;;
30398;SDS011;17195;50.838;7.214;2022-08-19T06:05:00;24.67;;;22.08;;
30398;SDS011;17195;50.838;7.214;2022-08-19T06:07:27;23.70;;;21.30;;
30398;SDS011;17195;50.838;7.214;2022-08-19T06:09:53;26.05;;;23.13;;
30398;SDS011;17195;50.838;7.214;2022-08-19T06:12:19;22.83;;;20.60;;
30398;SDS011;17195;50.838;7.214;2022-08-19T06:14:55;23.67;;;21.13;;
30398;SDS011;17195;50.838;7.214;2022-08-19T06:17:21;25.77;;;23.02;;
30398;SDS011;17195;50.838;7.214;2022-08-19T06:19:50;25.88;;;23.08;;
30398;SDS011;17195;50.838;7.214;2022-08-19T06:22:16;25.20;;;22.65;;
30398;SDS011;17195;50.838;7.214;2022-08-19T06:24:42;25.45;;;22.75;;
30398;SDS011;17195;50.838;7.214;2022-08-19T06:27:07;23.60;;;21.20;;
30398;SDS011;17195;50.838;7.214;2022-08-19T06:29:33;25.52;;;22.85;;
30398;SDS011;17195;50.838;7.214;2022-08-19T06:32:00;26.30;;;23.05;;
30398;SDS011;17195;50.838;7.214;2022-08-19T06:34:28;23.98;;;21.55;;
30398;SDS011;17195;50.838;7.214;2022-08-19T06:36:56;25.08;;;22.58;;
30398;SDS011;17195;50.838;7.214;2022-08-19T06:39:26;25.15;;;22.48;;
30398;SDS011;17195;50.838;7.214;2022-08-19T06:41:55;24.63;;;22.00;;
30398;SDS011;17195;50.838;7.214;2022-08-19T06:44:23;25.30;;;22.63;;
30398;SDS011;17195;50.838;7.214;2022-08-19T06:46:51;26.90;;;23.98;;
30398;SDS011;17195;50.838;7.214;2022-08-19T06:49:17;26.63;;;23.48;;
30398;SDS011;17195;50.838;7.214;2022-08-19T06:51:43;27.10;;;22.50;;
30398;SDS011;17195;50.838;7.214;2022-08-19T06:54:15;24.70;;;22.10;;
30398;SDS011;17195;50.838;7.214;2022-08-19T06:56:42;26.08;;;23.27;;
30398;SDS011;17195;50.838;7.214;2022-08-19T06:59:12;27.38;;;23.83;;
30398;SDS011;17195;50.838;7.214;2022-08-19T07:01:42;28.75;;;25.20;;
30398;SDS011;17195;50.838;7.214;2022-08-19T07:04:12;29.17;;;24.83;;
30398;SDS011;17195;50.838;7.214;2022-08-19T07:06:38;27.40;;;24.67;;
30398;SDS011;17195;50.838;7.214;2022-08-19T07:09:04;27.52;;;24.55;;
30398;SDS011;17195;50.838;7.214;2022-08-19T07:11:31;32.67;;;29.17;;
30398;SDS011;17195;50.838;7.214;2022-08-19T07:13:57;40.05;;;30.02;;
30398;SDS011;17195;50.838;7.214;2022-08-19T07:16:23;34.78;;;30.55;;
30398;SDS011;17195;50.838;7.214;2022-08-19T07:18:49;36.58;;;30.23;;
30398;SDS011;17195;50.838;7.214;2022-08-19T07:21:26;32.20;;;28.20;;
30398;SDS011;17195;50.838;7.214;2022-08-19T07:23:55;32.70;;;28.08;;
30398;SDS011;17195;50.838;7.214;2022-08-19T07:26:26;37.55;;;28.83;;
30398;SDS011;17195;50.838;7.214;2022-08-19T07:28:56;39.35;;;30.98;;
30398;SDS011;17195;50.838;7.214;2022-08-19T07:31:23;28.55;;;25.48;;
30398;SDS011;17195;50.838;7.214;2022-08-19T07:33:50;27.30;;;24.38;;
30398;SDS011;17195;50.838;7.214;2022-08-19T07:36:19;35.17;;;30.25;;
30398;SDS011;17195;50.838;7.214;2022-08-19T07:38:49;32.83;;;25.77;;
30398;SDS011;17195;50.838;7.214;2022-08-19T07:41:17;38.83;;;29.05;;
30398;SDS011;17195;50.838;7.214;2022-08-19T07:43:46;35.22;;;27.30;;
30398;SDS011;17195;50.838;7.214;2022-08-19T07:46:12;31.02;;;26.60;;
30398;SDS011;17195;50.838;7.214;2022-08-19T07:48:38;34.97;;;29.02;;
30398;SDS011;17195;50.838;7.214;2022-08-19T07:51:06;37.40;;;29.55;;
30398;SDS011;17195;50.838;7.214;2022-08-19T07:53:34;33.58;;;29.25;;
30398;SDS011;17195;50.838;7.214;2022-08-19T07:56:02;36.35;;;28.35;;
30398;SDS011;17195;50.838;7.214;2022-08-19T07:58:33;35.72;;;30.00;;
30398;SDS011;17195;50.838;7.214;2022-08-19T08:01:03;28.92;;;25.17;;
30398;SDS011;17195;50.838;7.214;2022-08-19T08:03:29;27.92;;;23.75;;
30398;SDS011;17195;50.838;7.214;2022-08-19T08:06:14;38.20;;;28.25;;
30398;SDS011;17195;50.838;7.214;2022-08-19T08:08:59;31.65;;;28.25;;
30398;SDS011;17195;50.838;7.214;2022-08-19T08:11:41;35.22;;;29.13;;
30398;SDS011;17195;50.838;7.214;2022-08-19T08:14:14;33.75;;;26.77;;
30398;SDS011;17195;50.838;7.214;2022-08-19T08:16:47;34.67;;;27.25;;
30398;SDS011;17195;50.838;7.214;2022-08-19T08:19:16;32.42;;;27.75;;
30398;SDS011;17195;50.838;7.214;2022-08-19T08:21:43;31.90;;;27.55;;
30398;SDS011;17195;50.838;7.214;2022-08-19T08:24:09;30.80;;;26.65;;
30398;SDS011;17195;50.838;7.214;2022-08-19T08:26:35;29.30;;;25.33;;
30398;SDS011;17195;50.838;7.214;2022-08-19T08:29:01;30.17;;;25.63;;
30398;SDS011;17195;50.838;7.214;2022-08-19T08:31:27;30.55;;;23.98;;
30398;SDS011;17195;50.838;7.214;2022-08-19T08:33:53;29.42;;;23.83;;
30398;SDS011;17195;50.838;7.214;2022-08-19T08:36:18;33.30;;;23.15;;
30398;SDS011;17195;50.838;7.214;2022-08-19T08:38:44;30.73;;;26.70;;
30398;SDS011;17195;50.838;7.214;2022-08-19T08:41:13;31.15;;;25.13;;
30398;SDS011;17195;50.838;7.214;2022-08-19T08:43:44;27.13;;;23.00;;
30398;SDS011;17195;50.838;7.214;2022-08-19T08:46:15;30.38;;;23.90;;
30398;SDS011;17195;50.838;7.214;2022-08-19T08:51:34;30.58;;;23.80;;
30398;SDS011;17195;50.838;7.214;2022-08-19T08:54:04;25.15;;;19.83;;
30398;SDS011;17195;50.838;7.214;2022-08-19T08:56:32;26.92;;;21.48;;
30398;SDS011;17195;50.838;7.214;2022-08-19T09:01:31;21.55;;;16.17;;
30398;SDS011;17195;50.838;7.214;2022-08-19T09:03:57;20.55;;;14.75;;
30398;SDS011;17195;50.838;7.214;2022-08-19T09:09:34;15.00;;;11.38;;
30398;SDS011;17195;50.838;7.214;2022-08-19T09:15:09;14.10;;;11.38;;
30398;SDS011;17195;50.838;7.214;2022-08-19T09:17:37;15.82;;;11.73;;
30398;SDS011;17195;50.838;7.214;2022-08-19T09:20:05;15.95;;;13.00;;
30398;SDS011;17195;50.838;7.214;2022-08-19T09:22:38;17.75;;;13.40;;
30398;SDS011;17195;50.838;7.214;2022-08-19T09:25:05;15.60;;;12.70;;
30398;SDS011;17195;50.838;7.214;2022-08-19T09:27:32;19.13;;;14.18;;
30398;SDS011;17195;50.838;7.214;2022-08-19T09:29:58;16.90;;;14.30;;
30398;SDS011;17195;50.838;7.214;2022-08-19T09:32:24;16.55;;;11.57;;
30398;SDS011;17195;50.838;7.214;2022-08-19T09:34:50;20.52;;;15.30;;
30398;SDS011;17195;50.838;7.214;2022-08-19T09:37:19;19.80;;;16.00;;
30398;SDS011;17195;50.838;7.214;2022-08-19T09:39:45;23.90;;;15.73;;
30398;SDS011;17195;50.838;7.214;2022-08-19T09:42:10;21.58;;;16.13;;
30398;SDS011;17195;50.838;7.214;2022-08-19T09:44:38;17.13;;;14.25;;
30398;SDS011;17195;50.838;7.214;2022-08-19T09:47:05;15.50;;;13.98;;
30398;SDS011;17195;50.838;7.214;2022-08-19T09:49:31;20.20;;;16.27;;
30398;SDS011;17195;50.838;7.214;2022-08-19T09:51:56;20.95;;;17.08;;
30398;SDS011;17195;50.838;7.214;2022-08-19T09:54:22;23.85;;;17.15;;
30398;SDS011;17195;50.838;7.214;2022-08-19T09:56:48;19.25;;;16.40;;
30398;SDS011;17195;50.838;7.214;2022-08-19T09:59:14;26.00;;;21.13;;
30398;SDS011;17195;50.838;7.214;2022-08-19T10:01:41;22.38;;;18.48;;
30398;SDS011;17195;50.838;7.214;2022-08-19T10:04:06;21.17;;;16.05;;
30398;SDS011;17195;50.838;7.214;2022-08-19T10:06:33;23.80;;;19.77;;
30398;SDS011;17195;50.838;7.214;2022-08-19T10:09:00;24.90;;;20.60;;
30398;SDS011;17195;50.838;7.214;2022-08-19T10:11:27;25.35;;;17.55;;
30398;SDS011;17195;50.838;7.214;2022-08-19T10:13:53;18.48;;;16.35;;
30398;SDS011;17195;50.838;7.214;2022-08-19T10:16:21;22.05;;;18.00;;
30398;SDS011;17195;50.838;7.214;2022-08-19T10:18:48;21.88;;;18.50;;
30398;SDS011;17195;50.838;7.214;2022-08-19T10:21:32;20.40;;;16.30;;
30398;SDS011;17195;50.838;7.214;2022-08-19T10:23:59;21.73;;;19.05;;
30398;SDS011;17195;50.838;7.214;2022-08-19T10:26:30;33.08;;;24.08;;
30398;SDS011;17195;50.838;7.214;2022-08-19T10:28:57;33.17;;;25.77;;
30398;SDS011;17195;50.838;7.214;2022-08-19T10:31:24;27.25;;;22.77;;
30398;SDS011;17195;50.838;7.214;2022-08-19T10:33:53;33.83;;;25.83;;
30398;SDS011;17195;50.838;7.214;2022-08-19T10:36:23;28.88;;;24.35;;
30398;SDS011;17195;50.838;7.214;2022-08-19T10:38:55;31.50;;;24.45;;
30398;SDS011;17195;50.838;7.214;2022-08-19T10:41:24;37.85;;;26.23;;
30398;SDS011;17195;50.838;7.214;2022-08-19T10:43:55;30.42;;;23.85;;
30398;SDS011;17195;50.838;7.214;2022-08-19T10:46:23;30.20;;;23.60;;
30398;SDS011;17195;50.838;7.214;2022-08-19T10:48:50;24.77;;;20.08;;
30398;SDS011;17195;50.838;7.214;2022-08-19T10:51:17;23.88;;;19.55;;
30398;SDS011;17195;50.838;7.214;2022-08-19T10:54:01;22.88;;;18.02;;
30398;SDS011;17195;50.838;7.214;2022-08-19T10:56:28;21.67;;;19.35;;
30398;SDS011;17195;50.838;7.214;2022-08-19T10:59:13;24.50;;;20.55;;
30398;SDS011;17195;50.838;7.214;2022-08-19T11:01:40;21.45;;;19.15;;
30398;SDS011;17195;50.838;7.214;2022-08-19T11:04:08;20.13;;;17.92;;
30398;SDS011;17195;50.838;7.214;2022-08-19T11:06:36;20.45;;;16.80;;
30398;SDS011;17195;50.838;7.214;2022-08-19T11:09:03;15.85;;;14.20;;
30398;SDS011;17195;50.838;7.214;2022-08-19T11:11:30;16.73;;;15.13;;
30398;SDS011;17195;50.838;7.214;2022-08-19T11:16:35;15.95;;;13.48;;
30398;SDS011;17195;50.838;7.214;2022-08-19T11:19:03;14.93;;;13.13;;
30398;SDS011;17195;50.838;7.214;2022-08-19T11:21:30;14.45;;;12.90;;
30398;SDS011;17195;50.838;7.214;2022-08-19T11:23:59;14.85;;;11.02;;
30398;SDS011;17195;50.838;7.214;2022-08-19T11:26:29;17.52;;;13.10;;
30398;SDS011;17195;50.838;7.214;2022-08-19T11:28:56;16.95;;;15.13;;
30398;SDS011;17195;50.838;7.214;2022-08-19T11:31:24;15.32;;;13.60;;
30398;SDS011;17195;50.838;7.214;2022-08-19T11:33:52;16.52;;;13.27;;
30398;SDS011;17195;50.838;7.214;2022-08-19T11:36:18;15.13;;;13.63;;
30398;SDS011;17195;50.838;7.214;2022-08-19T11:38:45;12.43;;;11.20;;
30398;SDS011;17195;50.838;7.214;2022-08-19T11:41:13;13.02;;;11.18;;
30398;SDS011;17195;50.838;7.214;2022-08-19T11:43:40;15.70;;;11.95;;
30398;SDS011;17195;50.838;7.214;2022-08-19T11:46:06;14.05;;;12.07;;
30398;SDS011;17195;50.838;7.214;2022-08-19T11:48:35;15.00;;;11.38;;
30398;SDS011;17195;50.838;7.214;2022-08-19T11:51:03;13.55;;;12.23;;
30398;SDS011;17195;50.838;7.214;2022-08-19T11:53:34;12.50;;;11.43;;
30398;SDS011;17195;50.838;7.214;2022-08-19T11:56:00;13.35;;;11.23;;
30398;SDS011;17195;50.838;7.214;2022-08-19T11:58:27;12.40;;;11.23;;
30398;SDS011;17195;50.838;7.214;2022-08-19T12:00:54;18.30;;;11.43;;
30398;SDS011;17195;50.838;7.214;2022-08-19T12:03:19;17.33;;;15.25;;
30398;SDS011;17195;50.838;7.214;2022-08-19T12:05:45;15.63;;;14.00;;
30398;SDS011;17195;50.838;7.214;2022-08-19T12:08:11;13.57;;;11.70;;
30398;SDS011;17195;50.838;7.214;2022-08-19T12:10:37;16.60;;;15.00;;
30398;SDS011;17195;50.838;7.214;2022-08-19T12:13:04;15.30;;;13.05;;
30398;SDS011;17195;50.838;7.214;2022-08-19T12:15:34;15.40;;;12.50;;
30398;SDS011;17195;50.838;7.214;2022-08-19T12:18:01;12.10;;;10.90;;
30398;SDS011;17195;50.838;7.214;2022-08-19T12:20:26;14.82;;;12.18;;
30398;SDS011;17195;50.838;7.214;2022-08-19T12:22:52;11.45;;;9.95;;
30398;SDS011;17195;50.838;7.214;2022-08-19T12:25:17;13.02;;;9.90;;
30398;SDS011;17195;50.838;7.214;2022-08-19T12:27:43;18.63;;;8.85;;
30398;SDS011;17195;50.838;7.214;2022-08-19T12:30:10;11.00;;;9.90;;
30398;SDS011;17195;50.838;7.214;2022-08-19T12:32:37;10.80;;;8.20;;
30398;SDS011;17195;50.838;7.214;2022-08-19T12:35:03;8.60;;;7.75;;
30398;SDS011;17195;50.838;7.214;2022-08-19T12:37:29;14.23;;;9.77;;
30398;SDS011;17195;50.838;7.214;2022-08-19T12:39:56;8.82;;;7.30;;
30398;SDS011;17195;50.838;7.214;2022-08-19T12:42:22;7.75;;;6.45;;
30398;SDS011;17195;50.838;7.214;2022-08-19T12:44:47;6.68;;;6.00;;
30398;SDS011;17195;50.838;7.214;2022-08-19T12:47:13;6.63;;;6.03;;
30398;SDS011;17195;50.838;7.214;2022-08-19T12:49:39;13.88;;;7.72;;
30398;SDS011;17195;50.838;7.214;2022-08-19T12:52:06;14.23;;;8.32;;
30398;SDS011;17195;50.838;7.214;2022-08-19T12:54:33;9.48;;;7.95;;
30398;SDS011;17195;50.838;7.214;2022-08-19T12:56:59;10.45;;;8.02;;
30398;SDS011;17195;50.838;7.214;2022-08-19T12:59:25;7.68;;;6.57;;
30398;SDS011;17195;50.838;7.214;2022-08-19T13:01:51;9.50;;;8.27;;
30398;SDS011;17195;50.838;7.214;2022-08-19T13:04:17;9.23;;;7.95;;
30398;SDS011;17195;50.838;7.214;2022-08-19T13:06:43;7.53;;;6.88;;
30398;SDS011;17195;50.838;7.214;2022-08-19T13:09:08;11.43;;;7.45;;
30398;SDS011;17195;50.838;7.214;2022-08-19T13:11:34;10.35;;;7.30;;
30398;SDS011;17195;50.838;7.214;2022-08-19T13:14:02;8.07;;;6.63;;
30398;SDS011;17195;50.838;7.214;2022-08-19T13:16:28;8.45;;;7.13;;
30398;SDS011;17195;50.838;7.214;2022-08-19T13:18:55;8.65;;;7.50;;
30398;SDS011;17195;50.838;7.214;2022-08-19T13:21:22;9.75;;;6.60;;
30398;SDS011;17195;50.838;7.214;2022-08-19T13:23:50;6.65;;;5.82;;
30398;SDS011;17195;50.838;7.214;2022-08-19T13:26:16;5.80;;;5.20;;
30398;SDS011;17195;50.838;7.214;2022-08-19T13:28:42;8.48;;;6.25;;
30398;SDS011;17195;50.838;7.214;2022-08-19T13:31:28;8.68;;;6.28;;
30398;SDS011;17195;50.838;7.214;2022-08-19T13:34:15;7.70;;;5.93;;
30398;SDS011;17195;50.838;7.214;2022-08-19T13:36:41;7.43;;;6.70;;
30398;SDS011;17195;50.838;7.214;2022-08-19T13:39:08;6.70;;;6.10;;
30398;SDS011;17195;50.838;7.214;2022-08-19T13:41:34;5.88;;;5.30;;
30398;SDS011;17195;50.838;7.214;2022-08-19T13:44:01;6.90;;;5.55;;
30398;SDS011;17195;50.838;7.214;2022-08-19T13:46:27;6.32;;;5.35;;
30398;SDS011;17195;50.838;7.214;2022-08-19T13:48:54;7.47;;;5.30;;
30398;SDS011;17195;50.838;7.214;2022-08-19T13:51:19;6.28;;;5.68;;
30398;SDS011;17195;50.838;7.214;2022-08-19T13:53:45;5.63;;;5.03;;
30398;SDS011;17195;50.838;7.214;2022-08-19T13:56:12;11.02;;;4.80;;
30398;SDS011;17195;50.838;7.214;2022-08-19T13:58:40;8.00;;;5.53;;
30398;SDS011;17195;50.838;7.214;2022-08-19T14:01:06;8.43;;;7.30;;
30398;SDS011;17195;50.838;7.214;2022-08-19T14:03:34;9.70;;;7.15;;
30398;SDS011;17195;50.838;7.214;2022-08-19T14:06:00;6.85;;;6.05;;
30398;SDS011;17195;50.838;7.214;2022-08-19T14:08:26;8.70;;;6.18;;
30398;SDS011;17195;50.838;7.214;2022-08-19T14:10:53;8.43;;;6.72;;
30398;SDS011;17195;50.838;7.214;2022-08-19T14:13:20;7.95;;;6.40;;
30398;SDS011;17195;50.838;7.214;2022-08-19T14:15:46;7.78;;;6.13;;
30398;SDS011;17195;50.838;7.214;2022-08-19T14:18:12;6.70;;;5.85;;
30398;SDS011;17195;50.838;7.214;2022-08-19T14:20:39;7.05;;;6.35;;
30398;SDS011;17195;50.838;7.214;2022-08-19T14:23:05;7.82;;;6.60;;
30398;SDS011;17195;50.838;7.214;2022-08-19T14:25:31;12.18;;;6.90;;
30398;SDS011;17195;50.838;7.214;2022-08-19T14:27:57;7.95;;;6.88;;
30398;SDS011;17195;50.838;7.214;2022-08-19T14:30:24;8.05;;;6.35;;
30398;SDS011;17195;50.838;7.214;2022-08-19T14:32:58;9.10;;;6.32;;
30398;SDS011;17195;50.838;7.214;2022-08-19T14:35:26;8.35;;;5.97;;
30398;SDS011;17195;50.838;7.214;2022-08-19T14:37:52;10.05;;;6.68;;
30398;SDS011;17195;50.838;7.214;2022-08-19T14:40:23;7.10;;;6.25;;
30398;SDS011;17195;50.838;7.214;2022-08-19T14:42:56;8.55;;;6.53;;
30398;SDS011;17195;50.838;7.214;2022-08-19T14:45:29;9.10;;;5.53;;
30398;SDS011;17195;50.838;7.214;2022-08-19T14:48:00;6.40;;;5.80;;